Time;durP1;ratioP1;P1;durP2;ratioP2;P2;SDS_P1;SDS_P2;PMS_P1;PMS_P2;Temp;Humidity;BMP_temperature;BMP_pressure;BME280_temperature;BME280_humidity;BME280_pressure;Samples;Min_cycle;Max_cycle;Signal;HPM_P1;HPM_P2
2023/01/03 00:01:18;;;;;;;12.85;5.60;;;;;;;;;;5058025;28;20091;-69
2023/01/03 00:03:45;;;;;;;15.18;6.55;;;;;;;;;;5057311;28;20048;-70
2023/01/03 00:06:18;;;;;;;14.15;5.95;;;;;;;;;;5058931;28;20085;-70
2023/01/03 00:08:48;;;;;;;14.82;5.75;;;;;;;;;;5047926;28;20052;-70
2023/01/03 00:11:15;;;;;;;11.13;5.50;;;;;;;;;;5035365;28;20086;-71
2023/01/03 00:13:41;;;;;;;12.82;5.68;;;;;;;;;;5038243;28;20052;-69
2023/01/03 00:16:14;;;;;;;11.73;5.43;;;;;;;;;;5022296;28;20050;-70
2023/01/03 00:18:41;;;;;;;13.10;5.72;;;;;;;;;;5022995;28;20080;-71
2023/01/03 00:21:08;;;;;;;13.57;6.13;;;;;;;;;;5030162;28;20118;-70
2023/01/03 00:23:35;;;;;;;11.20;5.57;;;;;;;;;;5063148;28;20063;-70
2023/01/03 00:26:10;;;;;;;14.40;6.18;;;;;;;;;;5042749;28;20060;-70
2023/01/03 00:28:37;;;;;;;16.92;6.22;;;;;;;;;;5014720;28;20083;-70
2023/01/03 00:31:05;;;;;;;11.13;6.00;;;;;;;;;;5016924;28;20056;-71
2023/01/03 00:33:32;;;;;;;13.48;6.15;;;;;;;;;;5035084;28;20619;-71
2023/01/03 00:36:01;;;;;;;12.93;5.93;;;;;;;;;;5040630;28;20079;-70
2023/01/03 00:38:27;;;;;;;;;;;;;;;;;;5014866;28;20044;-70
2023/01/03 00:40:54;;;;;;;12.40;5.32;;;;;;;;;;5034682;28;19931;-69
2023/01/03 00:43:31;;;;;;;14.45;5.85;;;;;;;;;;5062148;28;20048;-70
2023/01/03 00:45:57;;;;;;;13.68;6.07;;;;;;;;;;5063868;28;20095;-70
2023/01/03 00:48:26;;;;;;;12.65;5.60;;;;;;;;;;5015934;28;20398;-69
2023/01/03 00:50:53;;;;;;;12.88;5.93;;;;;;;;;;5049340;28;20123;-70
2023/01/03 00:53:20;;;;;;;12.38;6.05;;;;;;;;;;5037214;28;20063;-71
2023/01/03 00:55:47;;;;;;;13.30;5.93;;;;;;;;;;5027097;28;20059;-70
2023/01/03 00:58:14;;;;;;;13.30;6.05;;;;;;;;;;5038332;28;20250;-70
2023/01/03 01:00:42;;;;;;;13.73;5.50;;;;;;;;;;5011097;28;20080;-70
2023/01/03 01:03:09;;;;;;;14.68;5.82;;;;;;;;;;5032249;28;20060;-70
2023/01/03 01:05:36;;;;;;;13.07;5.80;;;;;;;;;;5027890;28;20066;-70
2023/01/03 01:08:02;;;;;;;14.02;5.70;;;;;;;;;;5028490;28;20077;-70
2023/01/03 01:10:29;;;;;;;12.63;6.07;;;;;;;;;;5008859;28;20436;-70
2023/01/03 01:12:56;;;;;;;12.90;6.07;;;;;;;;;;5040349;28;20151;-70
2023/01/03 01:15:23;;;;;;;16.23;5.85;;;;;;;;;;5027350;28;20151;-69
2023/01/03 01:17:51;;;;;;;13.77;6.22;;;;;;;;;;5030675;28;20059;-72
2023/01/03 01:20:21;;;;;;;11.13;5.28;;;;;;;;;;4962451;28;20250;-72
2023/01/03 01:22:47;;;;;;;12.25;5.72;;;;;;;;;;5001221;28;20053;-72
2023/01/03 01:25:14;;;;;;;11.68;5.80;;;;;;;;;;5013310;28;20045;-72
2023/01/03 01:27:43;;;;;;;13.20;5.35;;;;;;;;;;4984465;28;20122;-72
2023/01/03 01:30:10;;;;;;;13.25;6.43;;;;;;;;;;4993302;28;20057;-72
2023/01/03 01:32:37;;;;;;;13.15;5.85;;;;;;;;;;4973045;28;20179;-72
2023/01/03 01:35:09;;;;;;;14.65;6.35;;;;;;;;;;4969392;28;20242;-73
2023/01/03 01:37:36;;;;;;;12.48;5.72;;;;;;;;;;5013045;28;20120;-72
2023/01/03 01:40:02;;;;;;;12.70;5.80;;;;;;;;;;4988725;28;20067;-72
2023/01/03 01:45:14;;;;;;;15.73;5.88;;;;;;;;;;5038209;28;20053;-72
2023/01/03 01:47:44;;;;;;;15.43;6.07;;;;;;;;;;5027011;28;20139;-72
2023/01/03 01:50:16;;;;;;;14.43;6.15;;;;;;;;;;5026060;28;20129;-72
2023/01/03 01:52:46;;;;;;;12.27;5.88;;;;;;;;;;5014314;28;20054;-72
2023/01/03 01:55:14;;;;;;;15.07;5.78;;;;;;;;;;5028052;28;20469;-72
2023/01/03 01:57:41;;;;;;;13.13;5.93;;;;;;;;;;5017501;28;20052;-72
2023/01/03 02:00:09;;;;;;;13.65;6.03;;;;;;;;;;5016949;28;20305;-72
2023/01/03 02:02:36;;;;;;;13.32;6.25;;;;;;;;;;5030604;28;20148;-73
2023/01/03 02:05:05;;;;;;;14.05;6.28;;;;;;;;;;5039138;28;20048;-73
2023/01/03 02:07:33;;;;;;;;;;;;;;;;;;5025484;28;20275;-73
2023/01/03 02:15:14;;;;;;;14.18;5.82;;;;;;;;;;5059999;27;20420;-71
2023/01/03 02:17:44;;;;;;;14.45;6.43;;;;;;;;;;4961655;28;20077;-72
2023/01/03 02:20:21;;;;;;;13.48;5.68;;;;;;;;;;4972262;28;20057;-73
2023/01/03 02:23:05;;;;;;;11.48;5.65;;;;;;;;;;4966649;28;20074;-71
2023/01/03 02:25:50;;;;;;;12.57;5.70;;;;;;;;;;4930022;28;20058;-72
2023/01/03 02:28:34;;;;;;;13.70;5.88;;;;;;;;;;4960530;28;20405;-73
2023/01/03 02:33:48;;;;;;;16.83;6.72;;;;;;;;;;5037191;27;20703;-71
2023/01/03 02:36:20;;;;;;;17.48;5.88;;;;;;;;;;4961833;28;20066;-70
2023/01/03 02:38:48;;;;;;;13.93;5.85;;;;;;;;;;4963555;28;20459;-70
2023/01/03 02:41:20;;;;;;;15.13;6.32;;;;;;;;;;4945233;28;20100;-70
2023/01/03 02:43:52;;;;;;;13.77;5.82;;;;;;;;;;4972635;28;20105;-72
2023/01/03 02:46:23;;;;;;;14.93;7.00;;;;;;;;;;4945303;28;20639;-72
2023/01/03 02:48:54;;;;;;;12.80;6.00;;;;;;;;;;4961143;28;20061;-72
2023/01/03 02:51:22;;;;;;;16.80;6.28;;;;;;;;;;4956508;28;20058;-72
2023/01/03 02:53:50;;;;;;;12.50;6.38;;;;;;;;;;4987647;28;20041;-71
2023/01/03 02:56:19;;;;;;;14.43;6.50;;;;;;;;;;4988700;28;20054;-73
2023/01/03 02:58:47;;;;;;;11.93;5.70;;;;;;;;;;4972263;28;20042;-72
2023/01/03 03:01:15;;;;;;;14.02;6.88;;;;;;;;;;4930569;28;20055;-72
2023/01/03 03:03:42;;;;;;;14.52;6.70;;;;;;;;;;4821940;28;20043;-71
2023/01/03 03:06:12;;;;;;;12.95;6.00;;;;;;;;;;4923375;28;20051;-71
2023/01/03 03:08:39;;;;;;;11.30;5.25;;;;;;;;;;4927903;28;20052;-72
2023/01/03 03:13:53;;;;;;;12.10;5.82;;;;;;;;;;4933061;28;20051;-72
2023/01/03 03:16:46;;;;;;;12.00;6.00;;;;;;;;;;4877091;28;20052;-71
2023/01/03 03:24:48;;;;;;;12.48;6.20;;;;;;;;;;4902272;28;20071;-71
2023/01/03 03:24:52;;;;;;;13.18;6.22;;;;;;;;;;4933339;28;20234;-71
2023/01/03 03:30:08;;;;;;;12.40;6.22;;;;;;;;;;4935844;28;20043;-72
2023/01/03 03:32:35;;;;;;;14.05;6.22;;;;;;;;;;4964019;28;20216;-71
2023/01/03 03:35:03;;;;;;;13.70;5.88;;;;;;;;;;4931795;28;20055;-72
2023/01/03 03:37:36;;;;;;;12.95;5.82;;;;;;;;;;4918879;28;20056;-71
2023/01/03 03:45:37;;;;;;;14.73;6.40;;;;;;;;;;4965910;28;20057;-72
2023/01/03 03:48:09;;;;;;;13.23;6.25;;;;;;;;;;4982724;28;20058;-72
2023/01/03 03:50:38;;;;;;;12.27;5.78;;;;;;;;;;4957947;28;20100;-71
2023/01/03 03:53:09;;;;;;;13.43;6.47;;;;;;;;;;4972565;28;20152;-72
2023/01/03 03:58:02;;;;;;;13.02;6.57;;;;;;;;;;4785758;29;20060;-71
2023/01/03 04:02:55;;;;;;;13.90;6.68;;;;;;;;;;4833377;29;20132;-71
2023/01/03 04:05:26;;;;;;;14.27;6.90;;;;;;;;;;4871452;28;20055;-72
2023/01/03 04:07:53;;;;;;;12.75;6.25;;;;;;;;;;4935886;28;20171;-71
2023/01/03 04:10:24;;;;;;;15.90;7.45;;;;;;;;;;4977660;28;20104;-72
2023/01/03 04:12:51;;;;;;;14.02;6.53;;;;;;;;;;4953287;28;20181;-72
2023/01/03 04:22:50;;;;;;;12.80;6.25;;;;;;;;;;5061199;27;20479;-70
2023/01/03 04:25:19;;;;;;;15.88;6.78;;;;;;;;;;4939767;28;20279;-72
2023/01/03 04:27:45;;;;;;;;;;;;;;;;;;4975408;28;20064;-72
2023/01/03 04:30:16;;;;;;;15.70;7.03;;;;;;;;;;4983729;28;20123;-72
2023/01/03 04:32:42;;;;;;;15.40;7.07;;;;;;;;;;4986468;28;20119;-73
2023/01/03 04:35:12;;;;;;;13.75;6.90;;;;;;;;;;5008739;28;20065;-72
2023/01/03 04:37:39;;;;;;;14.50;6.63;;;;;;;;;;4983814;28;20057;-72
2023/01/03 04:40:10;;;;;;;12.77;6.65;;;;;;;;;;4956807;28;20052;-71
2023/01/03 04:45:21;;;;;;;14.52;7.18;;;;;;;;;;4956316;28;20057;-72
2023/01/03 04:47:50;;;;;;;14.18;6.88;;;;;;;;;;4972609;28;20057;-72
2023/01/03 04:50:17;;;;;;;13.30;6.72;;;;;;;;;;4962600;28;20057;-72
2023/01/03 04:52:44;;;;;;;14.27;7.10;;;;;;;;;;4947158;28;20086;-71
2023/01/03 04:55:12;;;;;;;15.20;6.97;;;;;;;;;;4977497;28;20061;-72
2023/01/03 04:57:39;;;;;;;14.48;7.32;;;;;;;;;;4975363;28;20056;-72
2023/01/03 05:00:09;;;;;;;13.18;6.45;;;;;;;;;;5002001;28;20052;-71
2023/01/03 05:02:35;;;;;;;13.75;7.07;;;;;;;;;;5007674;28;20076;-72
2023/01/03 05:05:09;;;;;;;14.18;6.43;;;;;;;;;;5009904;28;20053;-72
2023/01/03 05:07:36;;;;;;;13.65;6.55;;;;;;;;;;4976225;28;20145;-72
2023/01/03 05:10:06;;;;;;;11.35;5.70;;;;;;;;;;5001800;28;20140;-72
2023/01/03 05:12:34;;;;;;;13.23;6.25;;;;;;;;;;4963430;28;20050;-72
2023/01/03 05:15:06;;;;;;;12.63;6.57;;;;;;;;;;4937382;28;20050;-72
2023/01/03 05:17:33;;;;;;;13.15;6.55;;;;;;;;;;4978821;28;20090;-72
2023/01/03 05:28:13;;;;;;;16.65;7.05;;;;;;;;;;4973710;28;20153;-72
2023/01/03 05:30:40;;;;;;;12.35;6.57;;;;;;;;;;4884223;28;20066;-72
2023/01/03 05:33:07;;;;;;;11.52;6.05;;;;;;;;;;4932374;28;20114;-72
2023/01/03 05:35:34;;;;;;;12.48;6.03;;;;;;;;;;4910545;28;20079;-72
2023/01/03 05:38:01;;;;;;;14.57;6.82;;;;;;;;;;4889761;29;20059;-71
2023/01/03 05:40:43;;;;;;;11.45;5.90;;;;;;;;;;4873214;29;20066;-71
2023/01/03 05:48:19;;;;;;;16.42;6.43;;;;;;;;;;5040053;27;20431;-71
2023/01/03 05:50:46;;;;;;;12.40;5.85;;;;;;;;;;4981713;28;20049;-70
2023/01/03 05:53:13;;;;;;;12.23;6.07;;;;;;;;;;4985848;28;20049;-70
2023/01/03 05:55:39;;;;;;;11.02;5.93;;;;;;;;;;5009375;28;20137;-69
2023/01/03 05:58:08;;;;;;;12.95;6.43;;;;;;;;;;4970732;28;20093;-70
2023/01/03 06:00:35;;;;;;;12.70;5.78;;;;;;;;;;5023893;28;20056;-70
2023/01/03 06:03:05;;;;;;;11.68;5.57;;;;;;;;;;5030869;28;20054;-70
2023/01/03 06:05:36;;;;;;;12.55;5.70;;;;;;;;;;5011051;28;20060;-70
2023/01/03 06:08:04;;;;;;;12.90;6.43;;;;;;;;;;4976283;28;20065;-69
2023/01/03 06:10:31;;;;;;;10.95;5.93;;;;;;;;;;5000764;28;20080;-70
2023/01/03 06:12:58;;;;;;;10.57;5.47;;;;;;;;;;4964030;28;20053;-70
2023/01/03 06:15:25;;;;;;;12.20;6.45;;;;;;;;;;4995905;28;20650;-70
2023/01/03 06:17:58;;;;;;;12.60;6.00;;;;;;;;;;4974565;28;20062;-69
2023/01/03 06:20:26;;;;;;;13.15;5.90;;;;;;;;;;4978151;28;20133;-70
2023/01/03 06:22:54;;;;;;;10.80;5.60;;;;;;;;;;5001583;28;20073;-70
2023/01/03 06:25:21;;;;;;;9.38;5.22;;;;;;;;;;4977219;28;20303;-69
2023/01/03 06:27:50;;;;;;;13.00;5.93;;;;;;;;;;4962140;28;20367;-70
2023/01/03 06:30:17;;;;;;;10.20;5.35;;;;;;;;;;4970394;28;20057;-69
2023/01/03 06:32:44;;;;;;;14.52;6.10;;;;;;;;;;5002394;28;20057;-70
2023/01/03 06:35:11;;;;;;;12.90;5.72;;;;;;;;;;4987060;28;20064;-71
2023/01/03 06:37:38;;;;;;;14.45;5.63;;;;;;;;;;5005694;28;20061;-70
2023/01/03 06:40:07;;;;;;;12.38;5.35;;;;;;;;;;4977480;28;20054;-70
2023/01/03 06:42:41;;;;;;;11.80;5.57;;;;;;;;;;4982491;28;20050;-70
2023/01/03 06:53:28;;;;;;;12.55;6.13;;;;;;;;;;4980423;28;20053;-73
2023/01/03 06:56:00;;;;;;;12.32;5.57;;;;;;;;;;4928505;28;20053;-72
2023/01/03 06:58:30;;;;;;;11.40;5.68;;;;;;;;;;4935468;28;20064;-73
2023/01/03 07:01:01;;;;;;;12.90;5.28;;;;;;;;;;4979199;28;20065;-73
2023/01/03 07:03:31;;;;;;;9.50;4.82;;;;;;;;;;4961601;28;20299;-73
2023/01/03 07:11:16;;;;;;;11.80;5.40;;;;;;;;;;5013448;27;20425;-74
2023/01/03 07:14:01;;;;;;;10.05;5.25;;;;;;;;;;4922066;28;20129;-72
2023/01/03 07:16:35;;;;;;;10.73;5.15;;;;;;;;;;4922698;28;20106;-72
2023/01/03 07:19:06;;;;;;;12.07;5.60;;;;;;;;;;4960041;28;20077;-73
2023/01/03 07:21:34;;;;;;;9.55;5.00;;;;;;;;;;4945493;28;20062;-73
2023/01/03 07:24:02;;;;;;;11.82;4.97;;;;;;;;;;4955377;28;20080;-73
2023/01/03 07:26:32;;;;;;;11.30;5.18;;;;;;;;;;4956958;28;20373;-73
2023/01/03 07:29:17;;;;;;;12.55;4.97;;;;;;;;;;4981546;28;20467;-74
2023/01/03 07:31:45;;;;;;;9.77;4.88;;;;;;;;;;4943925;28;20146;-73
2023/01/03 07:39:20;;;;;;;9.38;4.70;;;;;;;;;;5044787;27;20474;-73
2023/01/03 07:47:56;;;;;;;11.68;5.10;;;;;;;;;;5041358;27;20439;-73
2023/01/03 07:50:30;;;;;;;12.13;5.07;;;;;;;;;;4970051;28;20536;-73
2023/01/03 07:58:05;;;;;;;11.75;4.75;;;;;;;;;;5036804;27;1648294;-71
2023/01/03 08:00:34;;;;;;;10.73;4.53;;;;;;;;;;5024931;28;20144;-71
2023/01/03 08:03:10;;;;;;;9.95;4.85;;;;;;;;;;5042527;28;20150;-71
2023/01/03 08:05:53;;;;;;;14.63;5.45;;;;;;;;;;4956604;28;20051;-72
2023/01/03 08:18:34;;;;;;;12.20;5.13;;;;;;;;;;4931405;28;20461;-72
2023/01/03 08:23:34;;;;;;;11.68;4.70;;;;;;;;;;4843080;28;20055;-71
2023/01/03 08:29:10;;;;;;;10.93;5.10;;;;;;;;;;4835328;28;20164;-74
2023/01/03 08:42:13;;;;;;;8.57;4.20;;;;;;;;;;5032167;27;20427;-71
2023/01/03 08:44:43;;;;;;;9.02;4.07;;;;;;;;;;4947231;28;20114;-70
2023/01/03 08:54:34;;;;;;;10.20;4.47;;;;;;;;;;4839231;29;20134;-71
2023/01/03 08:57:01;;;;;;;9.07;4.70;;;;;;;;;;4878165;28;20082;-70
2023/01/03 08:59:46;;;;;;;9.35;4.55;;;;;;;;;;4908581;28;20069;-69
2023/01/03 09:05:15;;;;;;;10.40;4.32;;;;;;;;;;4915689;28;20087;-71
2023/01/03 09:07:47;;;;;;;9.02;3.70;;;;;;;;;;4911648;28;20081;-72
2023/01/03 09:10:14;;;;;;;9.88;4.22;;;;;;;;;;4949844;28;20051;-71
2023/01/03 09:12:48;;;;;;;11.73;4.65;;;;;;;;;;4938326;28;20056;-70
2023/01/03 09:15:15;;;;;;;10.68;4.43;;;;;;;;;;4888781;29;20399;-70
2023/01/03 09:17:46;;;;;;;10.93;4.57;;;;;;;;;;4880943;28;20050;-70
2023/01/03 09:20:20;;;;;;;11.52;4.50;;;;;;;;;;4975878;28;20249;-71
2023/01/03 09:22:50;;;;;;;9.63;4.32;;;;;;;;;;4970693;28;20050;-71
2023/01/03 09:25:17;;;;;;;11.07;4.32;;;;;;;;;;4958137;28;20061;-71
2023/01/03 09:27:46;;;;;;;10.80;4.38;;;;;;;;;;4966404;28;20053;-71
2023/01/03 09:30:22;;;;;;;12.05;4.97;;;;;;;;;;4956099;28;20056;-70
2023/01/03 09:32:53;;;;;;;10.25;4.57;;;;;;;;;;4970004;28;20054;-70
2023/01/03 09:35:26;;;;;;;12.45;4.60;;;;;;;;;;4929238;28;20097;-70
2023/01/03 09:37:53;;;;;;;12.35;4.43;;;;;;;;;;4924214;28;20066;-70
2023/01/03 09:40:24;;;;;;;12.02;4.32;;;;;;;;;;4922895;28;20062;-70
2023/01/03 09:43:15;;;;;;;10.80;4.88;;;;;;;;;;4902166;28;20059;-70
2023/01/03 09:45:43;;;;;;;10.18;4.22;;;;;;;;;;4971022;28;20050;-70
2023/01/03 09:48:13;;;;;;;9.98;4.40;;;;;;;;;;4874279;28;20059;-70
2023/01/03 09:50:49;;;;;;;12.45;4.28;;;;;;;;;;4931909;28;20042;-71
2023/01/03 10:04:52;;;;;;;13.90;4.85;;;;;;;;;;4954725;28;20116;-70
2023/01/03 10:07:30;;;;;;;11.13;4.18;;;;;;;;;;4941032;28;20077;-71
2023/01/03 10:10:00;;;;;;;12.18;4.10;;;;;;;;;;4954566;28;20144;-70
2023/01/03 10:12:33;;;;;;;10.88;4.60;;;;;;;;;;4963257;28;20065;-71
2023/01/03 10:15:14;;;;;;;9.60;4.75;;;;;;;;;;4964580;28;20061;-71
2023/01/03 10:17:54;;;;;;;12.68;4.30;;;;;;;;;;4937590;28;20059;-71
2023/01/03 10:20:36;;;;;;;13.30;4.90;;;;;;;;;;4954560;28;20050;-70
2023/01/03 10:23:14;;;;;;;11.32;4.78;;;;;;;;;;4951544;28;20069;-71
2023/01/03 10:25:55;;;;;;;8.27;3.90;;;;;;;;;;4966910;28;20072;-71
2023/01/03 10:28:29;;;;;;;9.77;4.32;;;;;;;;;;4965033;28;20192;-71
2023/01/03 10:31:08;;;;;;;12.85;4.78;;;;;;;;;;4956273;28;20078;-70
2023/01/03 10:33:34;;;;;;;;;;;;;;;;;;4960636;28;20049;-70
2023/01/03 10:36:07;;;;;;;11.73;4.28;;;;;;;;;;4932032;28;19926;-70
2023/01/03 10:38:39;;;;;;;8.95;4.38;;;;;;;;;;4913562;28;20055;-71
2023/01/03 10:41:17;;;;;;;9.93;4.38;;;;;;;;;;4962230;28;20066;-70
2023/01/03 10:44:01;;;;;;;12.88;4.50;;;;;;;;;;4940557;28;20058;-71
2023/01/03 10:46:29;;;;;;;9.32;4.47;;;;;;;;;;4932951;28;20060;-70
2023/01/03 10:48:58;;;;;;;11.38;5.05;;;;;;;;;;4949291;28;20073;-70
2023/01/03 10:51:32;;;;;;;10.07;4.38;;;;;;;;;;4923720;28;20086;-71
2023/01/03 10:54:13;;;;;;;9.50;4.22;;;;;;;;;;4987202;28;20062;-71
2023/01/03 10:56:41;;;;;;;10.40;4.80;;;;;;;;;;4918795;28;20092;-71
2023/01/03 10:59:09;;;;;;;;;;;;;;;;;;4916733;28;20139;-71
2023/01/03 11:01:40;;;;;;;10.73;4.00;;;;;;;;;;4933359;28;19970;-71
2023/01/03 11:04:18;;;;;;;10.85;4.63;;;;;;;;;;4917394;28;20091;-70
2023/01/03 11:06:59;;;;;;;9.73;4.30;;;;;;;;;;4924097;28;20063;-71
2023/01/03 11:09:36;;;;;;;12.20;5.20;;;;;;;;;;4952757;28;20057;-70
2023/01/03 11:12:12;;;;;;;9.88;4.63;;;;;;;;;;4989490;28;20140;-71
2023/01/03 11:14:42;;;;;;;11.80;4.22;;;;;;;;;;4946174;28;20104;-70
2023/01/03 11:17:23;;;;;;;9.73;4.40;;;;;;;;;;4928634;28;20061;-72
2023/01/03 11:19:54;;;;;;;9.80;4.03;;;;;;;;;;4930341;28;20306;-71
2023/01/03 11:22:33;;;;;;;11.63;4.63;;;;;;;;;;4954718;28;20049;-70
2023/01/03 11:25:15;;;;;;;9.35;3.97;;;;;;;;;;4956178;28;20053;-70
2023/01/03 11:28:01;;;;;;;10.40;4.15;;;;;;;;;;4917296;28;20058;-71
2023/01/03 11:30:34;;;;;;;9.35;4.30;;;;;;;;;;4926717;28;20061;-71
2023/01/03 11:33:29;;;;;;;10.82;4.30;;;;;;;;;;4918942;28;20054;-74
2023/01/03 11:40:57;;;;;;;11.00;3.75;;;;;;;;;;4790015;29;20044;-70
2023/01/03 11:43:31;;;;;;;7.25;3.90;;;;;;;;;;4850892;29;20307;-71
2023/01/03 11:46:17;;;;;;;9.70;3.85;;;;;;;;;;4908902;28;20063;-71
2023/01/03 11:49:05;;;;;;;10.98;4.32;;;;;;;;;;4900046;28;20058;-70
2023/01/03 11:51:35;;;;;;;9.68;4.18;;;;;;;;;;4941672;28;20053;-71
2023/01/03 11:54:16;;;;;;;10.18;4.57;;;;;;;;;;4922721;28;20065;-71
2023/01/03 11:56:51;;;;;;;10.77;4.55;;;;;;;;;;4950661;28;20335;-71
2023/01/03 11:59:36;;;;;;;11.05;4.05;;;;;;;;;;4928847;28;20332;-71
2023/01/03 12:02:28;;;;;;;8.82;3.92;;;;;;;;;;4938983;28;20124;-71
2023/01/03 12:05:00;;;;;;;10.35;4.10;;;;;;;;;;4974108;28;20053;-71
2023/01/03 12:07:35;;;;;;;8.30;3.83;;;;;;;;;;4937241;28;20060;-71
2023/01/03 12:10:09;;;;;;;10.02;4.03;;;;;;;;;;4966763;28;20081;-71
2023/01/03 12:12:48;;;;;;;10.70;4.47;;;;;;;;;;4976788;28;20072;-71
2023/01/03 12:15:20;;;;;;;12.38;4.25;;;;;;;;;;4949835;28;20059;-71
2023/01/03 12:17:57;;;;;;;11.90;4.22;;;;;;;;;;4921061;28;20057;-71
2023/01/03 12:32:49;;;;;;;11.43;4.30;;;;;;;;;;4868785;29;20139;-70
2023/01/03 12:35:26;;;;;;;9.70;3.95;;;;;;;;;;4875448;28;20054;-71
2023/01/03 12:37:57;;;;;;;9.65;4.15;;;;;;;;;;4947734;28;20053;-70
2023/01/03 12:40:35;;;;;;;10.40;4.05;;;;;;;;;;4953262;28;20122;-70
2023/01/03 12:43:14;;;;;;;9.68;3.92;;;;;;;;;;4931449;28;20172;-72
2023/01/03 12:45:50;;;;;;;12.18;4.13;;;;;;;;;;4922085;28;20110;-71
2023/01/03 12:50:56;;;;;;;10.18;4.18;;;;;;;;;;4869388;29;20062;-70
2023/01/03 12:53:32;;;;;;;10.18;3.70;;;;;;;;;;4862470;29;20078;-71
2023/01/03 12:56:30;;;;;;;9.57;3.75;;;;;;;;;;4927988;28;20054;-71
2023/01/03 12:59:14;;;;;;;8.80;3.90;;;;;;;;;;4872251;28;20056;-70
2023/01/03 13:01:44;;;;;;;10.35;4.20;;;;;;;;;;4874012;29;20111;-71
2023/01/03 13:04:17;;;;;;;9.43;4.05;;;;;;;;;;4890897;28;20151;-72
2023/01/03 13:06:54;;;;;;;8.77;3.83;;;;;;;;;;4903697;28;20062;-71
2023/01/03 13:09:40;;;;;;;;;;;;;;;;;;;;;
2023/01/03 13:12:52;;;;;;;9.73;4.10;;;;;;;;;;4903240;28;20091;-70
2023/01/03 13:15:27;;;;;;;9.88;4.18;;;;;;;;;;4910050;28;20161;-70
2023/01/03 13:21:10;;;;;;;9.38;3.85;;;;;;;;;;4832302;29;20156;-71
2023/01/03 13:24:13;;;;;;;7.90;3.70;;;;;;;;;;4844662;29;20150;-70
2023/01/03 13:33:28;;;;;;;10.02;3.65;;;;;;;;;;4738371;29;20293;-74
2023/01/03 14:27:09;;;;;;;6.15;3.22;;;;;;;;;;5102750;27;20458;-72
2023/01/03 14:37:31;;;;;;;6.72;2.90;;;;;;;;;;4931906;28;20050;-71
2023/01/03 15:22:53;;;;;;;;;;;;;;;;;;;;;
2023/01/03 16:16:55;;;;;;;4.35;2.15;;;;;;;;;;6029674;22;2017194;-70
2023/01/03 16:19:25;;;;;;;6.15;2.45;;;;;;;;;;6105171;23;20030;-70
2023/01/03 16:21:54;;;;;;;5.40;2.55;;;;;;;;;;6038908;23;20025;-71
2023/01/03 16:24:22;;;;;;;5.57;2.40;;;;;;;;;;6100931;23;20028;-70
2023/01/03 16:26:49;;;;;;;;;;;;;;;;;;6087065;23;20100;-70
2023/01/03 16:29:16;;;;;;;5.78;2.58;;;;;;;;;;6072275;23;19920;-71
2023/01/03 16:31:44;;;;;;;6.75;2.45;;;;;;;;;;6049971;23;20438;-71
2023/01/03 16:34:15;;;;;;;7.32;2.60;;;;;;;;;;6096797;23;20033;-70
2023/01/03 16:36:43;;;;;;;8.02;2.58;;;;;;;;;;6112376;23;20018;-70
2023/01/03 16:39:14;;;;;;;6.57;2.30;;;;;;;;;;6078552;23;20025;-70
2023/01/03 16:41:40;;;;;;;4.88;1.95;;;;;;;;;;6073733;23;20036;-71
2023/01/03 16:44:07;;;;;;;5.57;2.10;;;;;;;;;;6083752;23;20029;-71
2023/01/03 16:46:38;;;;;;;5.95;2.47;;;;;;;;;;6061261;23;20022;-71
2023/01/03 16:49:10;;;;;;;7.95;2.28;;;;;;;;;;6054728;23;20117;-71
2023/01/03 16:51:41;;;;;;;7.20;2.05;;;;;;;;;;6015606;23;20032;-69
2023/01/03 16:54:08;;;;;;;8.77;2.25;;;;;;;;;;6083771;23;20025;-70
2023/01/03 16:56:35;;;;;;;5.05;2.22;;;;;;;;;;6074850;23;20026;-70
2023/01/03 16:59:15;;;;;;;5.43;2.10;;;;;;;;;;6065333;23;20716;-70
2023/01/03 17:01:57;;;;;;;8.95;1.98;;;;;;;;;;6014040;23;20469;-72
2023/01/03 17:12:12;;;;;;;5.80;2.25;;;;;;;;;;4953685;27;21142;-72
2023/01/03 17:14:39;;;;;;;5.60;2.30;;;;;;;;;;4940553;28;20160;-72
2023/01/03 17:17:10;;;;;;;6.97;2.08;;;;;;;;;;4966386;28;20041;-74
2023/01/03 17:19:37;;;;;;;4.10;2.22;;;;;;;;;;4911966;28;20059;-72
2023/01/03 17:22:06;;;;;;;5.93;2.30;;;;;;;;;;4891244;28;20053;-72
2023/01/03 17:37:56;;;;;;;5.20;2.08;;;;;;;;;;5084834;27;20488;-72
2023/01/03 17:40:26;;;;;;;9.68;2.22;;;;;;;;;;4973392;28;20059;-71
2023/01/03 17:42:56;;;;;;;6.65;2.05;;;;;;;;;;4900089;28;20065;-72
2023/01/03 17:50:53;;;;;;;5.80;2.00;;;;;;;;;;4909538;28;20058;-73
2023/01/03 17:53:25;;;;;;;4.50;1.85;;;;;;;;;;4982038;28;20060;-71
2023/01/03 17:55:52;;;;;;;4.05;1.60;;;;;;;;;;4996184;28;20055;-73
2023/01/03 17:58:29;;;;;;;5.57;1.92;;;;;;;;;;5031188;28;20052;-73
2023/01/03 18:04:11;;;;;;;5.30;2.00;;;;;;;;;;5013635;27;20506;-71
2023/01/03 18:06:38;;;;;;;;;;;;;;;;;;4989181;28;20050;-70
2023/01/03 18:09:11;;;;;;;8.63;1.98;;;;;;;;;;4989726;28;20011;-71
2023/01/03 18:11:38;;;;;;;6.30;2.13;;;;;;;;;;4943702;28;20057;-71
2023/01/03 18:14:10;;;;;;;5.30;2.35;;;;;;;;;;4960563;28;20139;-70
2023/01/03 18:16:36;;;;;;;5.47;1.98;;;;;;;;;;4942909;28;20053;-70
2023/01/03 18:19:03;;;;;;;4.88;2.08;;;;;;;;;;4964749;28;20058;-70
2023/01/03 18:21:35;;;;;;;7.15;2.40;;;;;;;;;;4951213;28;20102;-72
2023/01/03 18:24:04;;;;;;;6.75;2.30;;;;;;;;;;5032694;28;20050;-70
2023/01/03 18:26:35;;;;;;;5.53;2.10;;;;;;;;;;4981414;28;20093;-70
2023/01/03 18:29:06;;;;;;;6.80;2.28;;;;;;;;;;4988627;28;20133;-71
2023/01/03 18:31:35;;;;;;;8.57;2.30;;;;;;;;;;4974986;28;20073;-70
2023/01/03 18:34:03;;;;;;;9.07;2.22;;;;;;;;;;4999009;28;20065;-70
2023/01/03 18:36:32;;;;;;;4.47;2.00;;;;;;;;;;5030347;28;20145;-70
2023/01/03 18:39:02;;;;;;;5.00;1.85;;;;;;;;;;4990762;28;20057;-71
2023/01/03 18:41:32;;;;;;;5.68;2.15;;;;;;;;;;5001016;28;20057;-71
2023/01/03 18:43:59;;;;;;;7.35;2.20;;;;;;;;;;4982297;28;20165;-70
2023/01/03 18:46:29;;;;;;;6.65;1.90;;;;;;;;;;4975764;28;20053;-70
2023/01/03 18:48:56;;;;;;;7.75;2.25;;;;;;;;;;4991142;28;20061;-71
2023/01/03 18:51:23;;;;;;;5.13;2.08;;;;;;;;;;4966618;28;20084;-71
2023/01/03 18:53:52;;;;;;;6.05;2.10;;;;;;;;;;4993038;28;20063;-71
2023/01/03 18:56:28;;;;;;;5.38;1.95;;;;;;;;;;4975782;28;20077;-70
2023/01/03 18:58:57;;;;;;;6.07;2.50;;;;;;;;;;5007572;28;20045;-69
2023/01/03 19:01:24;;;;;;;4.55;1.77;;;;;;;;;;4997446;28;20085;-71
2023/01/03 19:03:51;;;;;;;7.13;2.20;;;;;;;;;;4987716;28;20049;-70
2023/01/03 19:06:20;;;;;;;5.15;1.80;;;;;;;;;;4988933;28;20088;-70
2023/01/03 19:08:49;;;;;;;6.93;2.20;;;;;;;;;;4976034;28;20081;-70
2023/01/03 19:11:27;;;;;;;5.47;2.22;;;;;;;;;;4998022;28;20056;-71
2023/01/03 19:13:58;;;;;;;10.52;2.20;;;;;;;;;;4980588;28;20050;-70
2023/01/03 19:16:29;;;;;;;7.65;2.50;;;;;;;;;;4966105;28;20066;-73
2023/01/03 19:18:57;;;;;;;7.90;2.30;;;;;;;;;;4891588;28;20198;-72
2023/01/03 19:26:59;;;;;;;4.28;1.83;;;;;;;;;;5027728;27;20542;-70
2023/01/03 19:35:18;;;;;;;4.57;1.80;;;;;;;;;;5009659;27;20969;-71
2023/01/03 19:37:47;;;;;;;4.05;1.63;;;;;;;;;;5040923;28;20056;-70
2023/01/03 19:40:17;;;;;;;8.30;2.22;;;;;;;;;;5020621;28;20048;-70
2023/01/03 19:42:51;;;;;;;2.95;1.42;;;;;;;;;;4998391;28;20096;-70
2023/01/03 19:45:26;;;;;;;4.90;1.80;;;;;;;;;;5000421;28;20429;-72
2023/01/03 19:47:53;;;;;;;5.23;1.63;;;;;;;;;;5024416;28;20143;-73
2023/01/03 19:50:24;;;;;;;5.55;1.83;;;;;;;;;;5007824;28;20122;-72
2023/01/03 19:52:54;;;;;;;3.67;1.67;;;;;;;;;;5006727;28;20134;-72
2023/01/03 19:55:23;;;;;;;4.07;1.73;;;;;;;;;;5032918;28;20061;-72
2023/01/03 19:57:52;;;;;;;7.40;2.08;;;;;;;;;;4974914;28;20057;-72
2023/01/03 20:00:26;;;;;;;4.40;1.63;;;;;;;;;;4938249;28;20187;-73
2023/01/03 20:05:38;;;;;;;6.50;1.90;;;;;;;;;;4911613;28;20085;-71
2023/01/03 20:08:18;;;;;;;8.00;2.20;;;;;;;;;;4902023;28;20139;-72
2023/01/03 20:16:34;;;;;;;6.25;1.80;;;;;;;;;;5032289;27;20440;-71
2023/01/03 20:19:03;;;;;;;5.18;1.83;;;;;;;;;;5001485;28;20369;-71
2023/01/03 20:21:42;;;;;;;4.18;1.70;;;;;;;;;;4954972;28;22289;-71
2023/01/03 20:24:30;;;;;;;3.28;1.60;;;;;;;;;;5004943;28;20041;-72
2023/01/03 20:27:34;;;;;;;;;;;;;;;;;;;;;
2023/01/03 20:30:24;;;;;;;3.65;1.45;;;;;;;;;;4998970;28;20050;-72
2023/01/03 20:36:26;;;;;;;6.82;1.73;;;;;;;;;;4984987;27;20437;-73
2023/01/03 20:39:04;;;;;;;3.97;1.60;;;;;;;;;;4923581;28;20091;-72
2023/01/03 21:31:30;;;;;;;5.00;1.60;;;;;;;;;;6128961;22;4355264;-70
2023/01/03 21:45:23;;;;;;;;;;;;;;;;;;;;;
2023/01/03 23:14:42;;;;;;;2.35;1.15;;;;;;;;;;6036028;22;1806412;-71
2023/01/03 23:20:13;;;;;;;8.27;1.30;;;;;;;;;;6088872;23;20129;-71
2023/01/03 23:22:52;;;;;;;5.03;1.35;;;;;;;;;;6091920;23;20060;-71
2023/01/03 23:26:18;;;;;;;3.63;1.30;;;;;;;;;;6087897;23;20081;-71
2023/01/03 23:29:16;;;;;;;4.93;1.65;;;;;;;;;;6085511;23;20035;-71
2023/01/03 23:31:54;;;;;;;6.65;1.60;;;;;;;;;;6075930;23;20104;-71
2023/01/03 23:34:25;;;;;;;3.92;1.33;;;;;;;;;;6076465;23;20028;-72
2023/01/03 23:37:00;;;;;;;7.72;1.50;;;;;;;;;;6058333;23;20195;-71
2023/01/03 23:39:38;;;;;;;5.35;1.20;;;;;;;;;;6110600;23;20108;-71
2023/01/03 23:42:09;;;;;;;3.95;1.25;;;;;;;;;;6082201;23;20028;-71
2023/01/03 23:44:47;;;;;;;7.65;1.60;;;;;;;;;;6050922;23;20233;-71
2023/01/03 23:47:18;;;;;;;3.85;1.42;;;;;;;;;;6059994;23;20022;-71